ENHD

Haugesund Airport

Karmøy, Norway
METAR ENHD 241150Z 16010KT 9999 SCT029 BKN051 03/M03 Q1036
Observed Flight Rules
Feb-24 @ 11:50 UTC (31 minutes ago) Visual Flight Rules
Wind Visibility Clouds
160° at 10 knots 10,000+ meters
  • Scattered at 2,900' AGL
  • Broken at 5,100' AGL
Temperatures Readings
Current 3°C / 37°F
Dewpoint -3°C / 27°F
Humidity 65%
Altimeter 30.59" Hg
Pressure 1036 hPa
Elevation 24
METAR ENHD 241150Z 16010KT 9999 SCT029 BKN051 03/M03 Q1036
Observed Flight Rules
Feb-24 @ 11:50 UTC
(31 minutes ago)
VFR
Wind Visibility
160° at 10 knots 10,000+ meters
Clouds
  • Scattered at 2,900' AGL
  • Broken at 5,100' AGL
Temperature Dewpoint
3°C / 37°F -3°C / 27°F
Humidity Altimeter Pressure
65% 30.59" Hg 1036 hPa